createdAt,value
2022-10-17T00:01:21.662Z,113654.06
2022-10-17T00:03:50.539Z,113913.03
2022-10-17T00:06:20.110Z,114172.03
2022-10-17T00:08:48.665Z,114172.03
2022-10-17T00:11:21.328Z,113913.03
2022-10-17T00:13:55.634Z,114172.03
2022-10-17T00:16:29.169Z,114172.03
2022-10-17T00:18:58.613Z,114431.03
2022-10-17T00:21:27.762Z,114690.03
2022-10-17T00:23:56.318Z,114690.03
2022-10-17T00:26:25.156Z,114690.03
2022-10-17T00:28:56.665Z,114431.03
2022-10-17T00:31:26.300Z,114690.03
2022-10-17T00:33:54.945Z,114690.03
2022-10-17T00:36:25.515Z,114431.03
2022-10-17T00:38:58.069Z,114690.03
2022-10-17T00:41:30.282Z,114949.09
2022-10-17T00:44:02.211Z,114690.03
2022-10-17T00:46:34.363Z,114431.03
2022-10-17T00:49:08.006Z,114690.03
2022-10-17T00:51:40.434Z,114690.03
2022-10-17T00:54:10.953Z,114690.03
2022-10-17T00:56:40.629Z,114690.03
2022-10-17T00:59:12.441Z,114949.09
2022-10-17T01:01:41.835Z,114949.09
2022-10-17T01:04:11.053Z,115208.13
2022-10-17T01:06:41.260Z,114949.09
2022-10-17T01:09:10.358Z,114949.09
2022-10-17T01:11:46.924Z,114949.09
2022-10-17T01:14:27.693Z,114949.09
2022-10-17T01:17:04.155Z,114949.09
2022-10-17T01:20:13.577Z,114949.09
2022-10-17T01:22:48.666Z,114949.09
2022-10-17T01:25:31.073Z,114690.03
2022-10-17T01:28:20.402Z,114690.03
2022-10-17T01:31:08.991Z,114431.03
2022-10-17T01:33:54.158Z,114431.03
2022-10-17T01:36:32.782Z,114431.03
2022-10-17T01:39:08.478Z,114431.03
2022-10-17T01:41:42.013Z,114431.03
2022-10-17T01:44:15.832Z,114431.03
2022-10-17T01:46:51.019Z,114172.03
2022-10-17T01:49:25.072Z,114172.03
2022-10-17T01:52:00.863Z,114431.03
2022-10-17T01:54:34.849Z,114431.03
2022-10-17T01:57:11.390Z,114690.03
2022-10-17T01:59:42.920Z,114690.03
2022-10-17T02:02:15.791Z,114172.03
2022-10-17T02:04:46.286Z,114172.03
2022-10-17T02:07:16.958Z,114172.03
2022-10-17T02:09:45.757Z,114172.03
2022-10-17T02:12:30.924Z,114431.03
2022-10-17T02:15:19.996Z,114431.03
2022-10-17T02:17:59.296Z,114172.03
2022-10-17T02:20:33.215Z,114431.03
2022-10-17T02:23:11.960Z,114431.03
2022-10-17T02:25:50.033Z,114172.03
2022-10-17T02:28:23.442Z,114172.03
2022-10-17T02:30:59.700Z,114172.03
2022-10-17T02:33:33.098Z,114172.03
2022-10-17T02:36:07.008Z,113913.03
2022-10-17T02:38:36.673Z,113654.06
2022-10-17T02:41:09.867Z,113654.06
2022-10-17T02:43:39.817Z,113654.06
2022-10-17T02:46:09.202Z,113654.06
2022-10-17T02:48:44.904Z,113913.03
2022-10-17T02:51:17.391Z,114172.03
2022-10-17T02:53:54.897Z,113913.03
2022-10-17T02:56:23.786Z,113654.06
2022-10-17T02:58:55.550Z,113395.13
2022-10-17T03:01:24.465Z,114172.03
2022-10-17T03:04:06.293Z,114172.03
2022-10-17T03:06:35.025Z,113913.03
2022-10-17T03:09:03.662Z,113913.03
2022-10-17T03:11:32.314Z,113654.06
2022-10-17T03:14:01.194Z,113654.06
2022-10-17T03:16:30.257Z,113395.13
2022-10-17T03:19:00.536Z,113913.03
2022-10-17T03:21:29.203Z,113913.03
2022-10-17T03:23:59.398Z,113654.06
2022-10-17T03:26:29.656Z,113654.06
2022-10-17T03:28:59.482Z,113654.06
2022-10-17T03:31:30.445Z,113913.03
2022-10-17T03:34:03.623Z,113654.06
2022-10-17T03:36:32.350Z,113654.06
2022-10-17T03:39:01.163Z,113654.06
2022-10-17T03:41:30.047Z,113395.13
2022-10-17T03:43:58.527Z,113395.13
2022-10-17T03:46:27.255Z,113136.22
2022-10-17T03:48:57.080Z,113395.13
2022-10-17T03:51:28.106Z,113395.13
2022-10-17T03:54:03.167Z,113654.06
2022-10-17T03:56:31.821Z,113654.06
2022-10-17T03:59:14.249Z,113654.06
2022-10-17T04:01:45.291Z,113654.06
2022-10-17T04:04:14.546Z,113913.03
2022-10-17T04:06:44.324Z,113654.06
2022-10-17T04:09:13.155Z,113395.13
2022-10-17T04:11:53.874Z,113654.06
2022-10-17T04:14:23.603Z,113654.06
2022-10-17T04:16:53.614Z,113654.06
2022-10-17T04:19:23.889Z,113654.06
2022-10-17T04:21:53.995Z,113395.13
2022-10-17T04:24:22.899Z,113395.13
2022-10-17T04:26:57.322Z,113395.13
2022-10-17T04:29:29.491Z,113395.13
2022-10-17T04:32:09.158Z,113654.06
2022-10-17T04:34:55.219Z,113654.06
2022-10-17T04:37:26.153Z,113654.06
2022-10-17T04:39:56.429Z,113654.06
2022-10-17T04:42:25.072Z,113654.06
2022-10-17T04:44:55.425Z,113913.03
2022-10-17T04:47:26.348Z,113654.06
2022-10-17T04:49:54.999Z,113395.13
2022-10-17T04:52:26.713Z,113654.06
2022-10-17T04:54:55.994Z,113654.06
2022-10-17T04:57:25.031Z,113654.06
2022-10-17T05:00:26.077Z,113913.03
2022-10-17T05:03:01.747Z,113913.03
2022-10-17T05:05:31.624Z,114172.03
2022-10-17T05:08:03.776Z,114172.03
2022-10-17T05:10:38.096Z,113913.03
2022-10-17T05:13:07.422Z,113913.03
2022-10-17T05:15:37.882Z,113654.06
2022-10-17T05:18:07.415Z,113395.13
2022-10-17T05:20:37.076Z,113654.06
2022-10-17T05:23:09.146Z,113913.03
2022-10-17T05:25:41.553Z,113913.03
2022-10-17T05:28:10.062Z,113913.03
2022-10-17T05:30:40.591Z,113654.06
2022-10-17T05:33:10.631Z,113654.06
2022-10-17T05:35:39.381Z,113395.13
2022-10-17T05:38:09.367Z,113395.13
2022-10-17T05:40:39.727Z,113654.06
2022-10-17T05:43:08.383Z,113654.06
2022-10-17T05:45:37.957Z,113654.06
2022-10-17T05:48:10.286Z,113654.06
2022-10-17T05:50:39.293Z,113395.13
2022-10-17T05:53:17.495Z,113654.06
2022-10-17T05:55:57.092Z,113395.13
2022-10-17T05:58:45.478Z,113395.13
2022-10-17T06:01:25.647Z,113395.13
2022-10-17T06:03:55.140Z,113136.22
2022-10-17T06:06:23.926Z,113136.22
2022-10-17T06:08:54.352Z,113136.22
2022-10-17T06:11:28.402Z,113136.22
2022-10-17T06:13:57.444Z,113395.13
2022-10-17T06:16:28.073Z,113395.13
2022-10-17T06:18:56.697Z,113395.13
2022-10-17T06:21:28.277Z,113654.06
2022-10-17T06:24:08.593Z,113654.06
2022-10-17T06:26:39.157Z,113913.03
2022-10-17T06:29:09.855Z,113913.03
2022-10-17T06:31:44.969Z,113913.03
2022-10-17T06:34:14.093Z,114172.03
2022-10-17T06:36:43.140Z,114431.03
2022-10-17T06:39:13.982Z,114431.03
2022-10-17T06:41:53.263Z,114172.03
2022-10-17T06:44:22.787Z,114431.03
2022-10-17T06:47:10.932Z,114431.03
2022-10-17T06:49:39.606Z,114431.03
2022-10-17T06:52:30.964Z,114431.03
2022-10-17T06:55:22.654Z,114172.03
2022-10-17T06:58:10.174Z,114431.03
2022-10-17T07:00:46.006Z,114431.03
2022-10-17T07:03:15.011Z,114431.03
2022-10-17T07:05:43.831Z,114431.03
2022-10-17T07:08:12.408Z,114431.03
2022-10-17T07:10:42.498Z,114431.03
2022-10-17T07:13:11.045Z,114431.03
2022-10-17T07:15:40.027Z,114431.03
2022-10-17T07:18:08.805Z,114431.03
2022-10-17T07:20:37.650Z,114431.03
2022-10-17T07:23:06.991Z,114172.03
2022-10-17T07:25:39.343Z,114172.03
2022-10-17T07:28:12.352Z,114431.03
2022-10-17T07:30:41.920Z,114431.03
2022-10-17T07:33:13.645Z,114172.03
2022-10-17T07:35:42.267Z,114172.03
2022-10-17T07:38:11.945Z,114172.03
2022-10-17T07:40:40.491Z,114172.03
2022-10-17T07:43:09.199Z,114431.03
2022-10-17T07:45:42.112Z,113913.03
2022-10-17T07:48:11.092Z,113913.03
2022-10-17T07:50:40.797Z,113913.03
2022-10-17T07:53:09.228Z,113395.13
2022-10-17T07:55:38.441Z,112877.31
2022-10-17T07:58:07.648Z,112100.69
2022-10-17T08:00:36.303Z,113136.22
2022-10-17T08:03:07.553Z,112877.31
2022-10-17T08:05:36.544Z,111583.06
2022-10-17T08:08:05.542Z,112100.69
2022-10-17T08:10:34.169Z,112100.69
2022-10-17T08:13:03.338Z,111583.06
2022-10-17T08:15:32.250Z,110548.00
2022-10-17T08:18:01.257Z,110030.59
2022-10-17T08:20:31.485Z,110030.59
2022-10-17T08:23:00.140Z,109254.63
2022-10-17T08:25:28.729Z,108478.84
2022-10-17T08:27:57.393Z,108737.41
2022-10-17T08:30:26.348Z,108737.41
2022-10-17T08:32:56.791Z,108478.84
2022-10-17T08:35:25.390Z,108478.84
2022-10-17T08:37:57.702Z,108220.28
2022-10-17T08:40:29.245Z,106152.47
2022-10-17T08:43:14.622Z,105635.72
2022-10-17T08:45:48.850Z,104344.16
2022-10-17T08:48:19.843Z,105377.34
2022-10-17T08:50:54.002Z,103053.06
2022-10-17T08:53:31.847Z,100730.31
2022-10-17T08:56:11.927Z,102536.75
2022-10-17T08:58:44.660Z,99698.47
2022-10-17T09:01:28.294Z,98924.81
2022-10-17T09:04:26.364Z,97377.97
2022-10-17T09:07:03.176Z,94543.91
2022-10-17T09:09:41.513Z,91454.81
2022-10-17T09:12:25.178Z,89911.31
2022-10-17T09:15:22.344Z,87597.34
2022-10-17T09:17:56.036Z,83230.72
2022-10-17T09:20:27.817Z,79638.84
2022-10-17T09:23:00.266Z,79638.84
2022-10-17T09:25:33.910Z,76563.09
2022-10-17T09:28:15.463Z,71954.59
2022-10-17T09:30:46.491Z,66342.38
2022-10-17T09:33:35.058Z,64038.25
2022-10-17T09:36:07.714Z,62528.97
2022-10-17T09:38:42.458Z,60498.34
2022-10-17T09:41:43.531Z,58843.25
2022-10-17T09:44:18.071Z,57895.56
2022-10-17T09:46:59.200Z,58028.94
2022-10-17T09:49:40.358Z,57119.31
2022-10-17T09:52:15.362Z,57055.63
2022-10-17T09:54:46.349Z,56458.63
2022-10-17T09:57:18.879Z,56496.44
2022-10-17T09:59:56.878Z,56566.09
2022-10-17T10:02:27.895Z,56546.19
2022-10-17T10:05:04.715Z,57035.72
2022-10-17T10:07:37.128Z,57149.16
2022-10-17T10:10:10.047Z,57823.91
2022-10-17T10:12:41.182Z,58098.63
2022-10-17T10:15:35.285Z,57549.22
2022-10-17T10:18:04.434Z,57708.44
2022-10-17T10:20:37.099Z,57604.94
2022-10-17T10:23:24.428Z,57433.78
2022-10-17T10:25:57.446Z,57965.25
2022-10-17T10:28:33.081Z,57724.38
2022-10-17T10:31:08.542Z,58068.75
2022-10-17T10:33:44.145Z,58176.25
2022-10-17T10:36:15.818Z,58460.97
2022-10-17T10:38:54.854Z,59221.59
2022-10-17T10:41:28.097Z,60356.88
2022-10-17T10:43:58.224Z,61763.59
2022-10-17T10:46:30.250Z,65476.41
2022-10-17T10:49:01.578Z,69221.25
2022-10-17T10:51:34.905Z,71838.66
2022-10-17T10:54:10.118Z,73746.06
2022-10-17T10:56:43.827Z,75538.44
2022-10-17T10:59:22.102Z,77588.03
2022-10-17T11:01:56.999Z,79895.28
2022-10-17T11:04:32.656Z,82717.38
2022-10-17T11:07:11.673Z,86569.41
2022-10-17T11:09:50.239Z,89139.81
2022-10-17T11:12:26.583Z,90168.50
2022-10-17T11:15:04.165Z,91197.50
2022-10-17T11:17:40.611Z,93513.91
2022-10-17T11:20:20.464Z,94543.91
2022-10-17T11:22:50.516Z,97377.97
2022-10-17T11:25:36.370Z,97893.50
2022-10-17T11:28:12.710Z,98924.81
2022-10-17T11:30:48.330Z,98151.31
2022-10-17T11:33:25.785Z,98924.81
2022-10-17T11:36:00.048Z,99440.56
2022-10-17T11:38:42.037Z,99698.47
2022-10-17T11:41:15.741Z,100730.31
2022-10-17T11:43:49.802Z,100730.31
2022-10-17T11:46:24.579Z,102536.75
2022-10-17T11:49:02.699Z,103311.25
2022-10-17T11:54:31.075Z,102278.66
2022-10-17T11:57:14.687Z,102020.53
2022-10-17T12:00:03.153Z,102536.75
2022-10-17T12:02:44.063Z,101762.47
2022-10-17T12:05:24.887Z,101246.34
2022-10-17T12:12:35.350Z,100988.31
2022-10-17T12:15:29.903Z,99698.47
2022-10-17T12:18:04.345Z,99440.56
2022-10-17T12:20:45.440Z,97635.72
2022-10-17T12:23:28.482Z,97120.22
2022-10-17T12:26:04.735Z,96604.81
2022-10-17T12:28:35.288Z,95831.81
2022-10-17T12:31:10.138Z,94286.38
2022-10-17T12:33:50.239Z,94286.38
2022-10-17T12:36:42.354Z,92741.59
2022-10-17T12:39:53.121Z,92741.59
2022-10-17T12:42:47.727Z,91454.81
2022-10-17T12:45:48.944Z,90682.97
2022-10-17T12:49:07.152Z,89911.31
2022-10-17T12:52:09.351Z,89139.81
2022-10-17T12:54:48.036Z,89396.97
2022-10-17T12:57:26.712Z,88882.69
2022-10-17T13:05:13.153Z,88882.69
2022-10-17T13:07:44.541Z,88882.69
2022-10-17T13:10:51.735Z,89139.81
2022-10-17T13:14:27.348Z,89911.31
2022-10-17T13:17:26.973Z,90940.22
2022-10-17T13:20:36.217Z,90682.97
2022-10-17T13:23:40.409Z,91197.50
2022-10-17T13:27:12.269Z,91454.81
2022-10-17T13:35:01.135Z,91712.13
2022-10-17T13:38:40.373Z,91712.13
2022-10-17T13:45:20.402Z,90940.22
2022-10-17T13:47:50.092Z,90425.72
2022-10-17T13:50:43.137Z,90682.97
2022-10-17T13:53:40.034Z,89911.31
2022-10-17T13:56:39.617Z,89396.97
2022-10-17T14:03:07.735Z,87854.38
2022-10-17T14:06:44.081Z,88368.50
2022-10-17T14:13:45.760Z,87083.34
2022-10-17T14:16:41.232Z,84771.25
2022-10-17T14:19:42.055Z,86055.56
2022-10-17T14:22:20.004Z,86312.47
2022-10-17T14:24:50.964Z,87083.34
2022-10-17T14:27:30.330Z,87597.34
2022-10-17T14:30:03.257Z,87854.38
2022-10-17T14:32:35.608Z,88368.50
2022-10-17T14:35:30.505Z,88882.69
2022-10-17T14:38:08.155Z,89396.97
2022-10-17T14:41:23.537Z,89911.31
2022-10-17T14:43:58.521Z,90940.22
2022-10-17T14:46:29.828Z,91712.13
2022-10-17T14:49:06.701Z,91969.47
2022-10-17T14:51:50.311Z,92999.00
2022-10-17T14:54:29.434Z,93771.38
2022-10-17T14:56:59.691Z,94286.38
2022-10-17T15:02:26.049Z,95316.59
2022-10-17T15:04:55.960Z,96347.13
2022-10-17T15:08:21.401Z,96604.81
2022-10-17T15:10:53.699Z,97377.97
2022-10-17T15:13:32.388Z,97377.97
2022-10-17T15:16:05.149Z,98151.31
2022-10-17T15:18:34.959Z,98151.31
2022-10-17T15:21:43.402Z,99182.69
2022-10-17T15:24:21.864Z,99698.47
2022-10-17T15:29:23.939Z,100988.31
2022-10-17T15:31:55.262Z,101762.47
2022-10-17T15:34:24.086Z,101762.47
2022-10-17T15:36:54.142Z,102278.66
2022-10-17T15:39:23.265Z,102536.75
2022-10-17T15:41:53.647Z,102794.91
2022-10-17T15:44:22.871Z,102794.91
2022-10-17T15:46:52.465Z,103053.06
2022-10-17T15:49:21.685Z,103311.25
2022-10-17T15:51:55.182Z,104085.91
2022-10-17T15:54:27.002Z,104085.91
2022-10-17T15:56:58.253Z,104085.91
2022-10-17T15:59:32.570Z,103827.66
2022-10-17T16:02:03.285Z,104344.16
2022-10-17T16:04:32.015Z,104344.16
2022-10-17T16:07:01.392Z,104344.16
2022-10-17T16:09:30.206Z,104344.16
2022-10-17T16:12:02.688Z,104602.44
2022-10-17T16:14:32.620Z,104860.72
2022-10-17T16:17:02.198Z,104860.72
2022-10-17T16:19:31.399Z,105119.03
2022-10-17T16:22:04.766Z,105377.34
2022-10-17T16:24:35.320Z,105377.34
2022-10-17T16:27:06.891Z,105377.34
2022-10-17T16:29:38.197Z,105635.72
2022-10-17T16:32:09.085Z,105894.09
2022-10-17T16:34:44.945Z,105894.09
2022-10-17T16:37:17.742Z,106152.47
2022-10-17T16:39:49.313Z,106410.88
2022-10-17T16:42:20.100Z,106152.47
2022-10-17T16:44:52.120Z,106152.47
2022-10-17T16:47:20.918Z,106152.47
2022-10-17T16:49:49.739Z,107186.22
2022-10-17T16:52:18.584Z,107186.22
2022-10-17T16:54:49.282Z,107186.22
2022-10-17T16:57:20.131Z,107186.22
2022-10-17T16:59:50.831Z,106669.31
2022-10-17T17:02:21.375Z,106669.31
2022-10-17T17:04:56.685Z,106669.31
2022-10-17T17:07:25.358Z,106410.88
2022-10-17T17:09:55.908Z,106669.31
2022-10-17T17:12:26.834Z,106410.88
2022-10-17T17:14:57.450Z,107186.22
2022-10-17T17:17:44.284Z,107961.72
2022-10-17T17:20:21.182Z,108996.00
2022-10-17T17:22:53.666Z,109254.63
2022-10-17T17:25:23.519Z,108996.00
2022-10-17T17:27:53.978Z,108478.84
2022-10-17T17:30:25.883Z,108478.84
2022-10-17T17:32:55.226Z,108996.00
2022-10-17T17:35:23.941Z,109771.94
2022-10-17T17:37:53.092Z,110030.59
2022-10-17T17:40:22.143Z,110548.00
2022-10-17T17:42:51.357Z,110548.00
2022-10-17T17:45:21.641Z,110806.75
2022-10-17T17:47:51.985Z,110806.75
2022-10-17T17:50:20.977Z,111065.50
2022-10-17T17:52:51.615Z,110806.75
2022-10-17T17:55:21.990Z,111065.50
2022-10-17T17:57:52.468Z,111324.28
2022-10-17T18:00:23.666Z,111065.50
2022-10-17T18:02:52.927Z,111065.50
2022-10-17T18:05:22.125Z,111065.50
2022-10-17T18:07:52.159Z,111583.06
2022-10-17T18:10:21.429Z,111583.06
2022-10-17T18:12:50.557Z,111841.88
2022-10-17T18:15:20.474Z,111841.88
2022-10-17T18:17:51.170Z,112100.69
2022-10-17T18:20:20.356Z,112100.69
2022-10-17T18:22:49.425Z,112359.53
2022-10-17T18:25:18.069Z,112359.53
2022-10-17T18:27:48.947Z,112618.41
2022-10-17T18:30:21.159Z,112359.53
2022-10-17T18:33:28.452Z,112618.41
2022-10-17T18:35:58.403Z,112877.31
2022-10-17T18:38:28.060Z,112877.31
2022-10-17T18:41:04.641Z,112618.41
2022-10-17T18:43:36.081Z,112877.31
2022-10-17T18:46:10.933Z,112618.41
2022-10-17T18:48:46.605Z,112877.31
2022-10-17T18:51:17.949Z,112877.31
2022-10-17T18:53:48.953Z,112877.31
2022-10-17T18:56:21.556Z,112877.31
2022-10-17T18:58:50.824Z,112618.41
2022-10-17T19:01:22.482Z,112877.31
2022-10-17T19:03:54.649Z,112618.41
2022-10-17T19:06:33.583Z,112877.31
2022-10-17T19:09:04.101Z,112877.31
2022-10-17T19:11:34.783Z,112877.31
2022-10-17T19:14:07.353Z,113136.22
2022-10-17T19:16:38.608Z,113136.22
2022-10-17T19:19:12.500Z,113395.13
2022-10-17T19:21:43.563Z,113136.22
2022-10-17T19:24:16.141Z,113136.22
2022-10-17T19:26:47.099Z,113136.22
2022-10-17T19:29:18.527Z,113136.22
2022-10-17T19:34:29.102Z,112877.31
2022-10-17T19:36:58.823Z,112877.31
2022-10-17T19:39:27.510Z,112877.31
2022-10-17T19:41:57.067Z,112877.31
2022-10-17T19:44:25.765Z,112877.31
2022-10-17T19:46:54.571Z,112877.31
2022-10-17T19:49:23.067Z,112618.41
2022-10-17T19:51:53.139Z,112618.41
2022-10-17T19:54:21.797Z,112618.41
2022-10-17T19:56:50.982Z,112359.53
2022-10-17T19:59:20.113Z,112359.53
2022-10-17T20:01:48.887Z,112359.53
2022-10-17T20:04:17.680Z,112359.53
2022-10-17T20:06:46.751Z,112100.69
2022-10-17T20:09:17.542Z,112100.69
2022-10-17T20:11:47.893Z,111841.88
2022-10-17T20:14:16.682Z,111841.88
2022-10-17T20:16:50.250Z,111841.88
2022-10-17T20:19:19.589Z,112100.69
2022-10-17T20:21:50.251Z,111841.88
2022-10-17T20:24:20.566Z,112100.69
2022-10-17T20:26:52.107Z,111841.88
2022-10-17T20:29:23.873Z,111841.88
2022-10-17T20:31:52.717Z,111841.88
2022-10-17T20:34:21.786Z,111841.88
2022-10-17T20:36:51.452Z,111583.06
2022-10-17T20:39:22.690Z,111583.06
2022-10-17T20:41:51.784Z,111583.06
2022-10-17T20:44:20.796Z,111583.06
2022-10-17T20:47:01.250Z,111583.06
2022-10-17T20:49:31.827Z,111583.06
2022-10-17T20:52:02.319Z,111583.06
2022-10-17T20:54:33.889Z,111324.28
2022-10-17T20:57:04.929Z,111324.28
2022-10-17T20:59:36.346Z,111065.50
2022-10-17T21:02:06.659Z,111065.50
2022-10-17T21:04:50.971Z,111065.50
2022-10-17T21:07:19.752Z,111065.50
2022-10-17T21:09:50.340Z,111065.50
2022-10-17T21:12:30.871Z,111065.50
2022-10-17T21:15:01.194Z,111324.28
2022-10-17T21:17:30.321Z,111324.28
2022-10-17T21:20:00.128Z,111324.28
2022-10-17T21:22:31.433Z,111324.28
2022-10-17T21:25:05.086Z,111065.50
2022-10-17T21:27:34.595Z,111065.50
2022-10-17T21:30:04.107Z,110806.75
2022-10-17T21:32:50.497Z,110806.75
2022-10-17T21:35:21.011Z,110806.75
2022-10-17T21:37:50.390Z,110806.75
2022-10-17T21:40:20.841Z,111065.50
2022-10-17T21:42:49.709Z,110806.75
2022-10-17T21:45:25.423Z,110806.75
2022-10-17T21:48:12.164Z,110806.75
2022-10-17T21:50:42.635Z,110548.00
2022-10-17T21:53:11.212Z,110806.75
2022-10-17T21:55:41.310Z,110806.75
2022-10-17T21:58:10.817Z,110548.00
2022-10-17T22:00:41.478Z,110289.28
2022-10-17T22:03:12.897Z,110289.28
2022-10-17T22:05:41.830Z,110548.00
2022-10-17T22:08:10.583Z,110289.28
2022-10-17T22:10:42.675Z,110030.59
2022-10-17T22:13:11.561Z,109771.94
2022-10-17T22:15:41.085Z,110289.28
2022-10-17T22:18:10.078Z,110806.75
2022-10-17T22:20:39.048Z,110806.75
2022-10-17T22:23:07.671Z,110806.75
2022-10-17T22:25:36.442Z,110548.00
2022-10-17T22:28:07.025Z,110548.00
2022-10-17T22:30:35.751Z,110289.28
2022-10-17T22:33:04.750Z,110289.28
2022-10-17T22:35:33.270Z,110289.28
2022-10-17T22:38:02.211Z,110289.28
2022-10-17T22:40:30.698Z,109771.94
2022-10-17T22:42:59.138Z,109513.28
2022-10-17T22:45:29.138Z,109771.94
2022-10-17T22:47:58.375Z,109513.28
2022-10-17T22:50:27.990Z,110289.28
2022-10-17T22:52:56.583Z,110548.00
2022-10-17T22:55:25.989Z,110030.59
2022-10-17T22:57:54.638Z,109771.94
2022-10-17T23:00:23.711Z,109513.28
2022-10-17T23:02:56.954Z,109771.94
2022-10-17T23:05:25.402Z,110030.59
2022-10-17T23:07:54.241Z,110289.28
2022-10-17T23:10:22.833Z,110806.75
2022-10-17T23:12:51.602Z,110806.75
2022-10-17T23:15:20.166Z,111065.50
2022-10-17T23:17:48.763Z,111065.50
2022-10-17T23:20:19.081Z,111065.50
2022-10-17T23:22:47.555Z,110806.75
2022-10-17T23:25:17.722Z,111065.50
2022-10-17T23:27:46.357Z,111324.28
2022-10-17T23:30:15.377Z,111324.28
2022-10-17T23:32:44.991Z,111583.06
2022-10-17T23:35:14.022Z,111583.06
2022-10-17T23:37:44.354Z,111583.06
2022-10-17T23:40:14.153Z,111841.88
2022-10-17T23:42:42.767Z,111841.88
2022-10-17T23:45:12.388Z,111841.88
2022-10-17T23:47:40.919Z,111841.88
2022-10-17T23:50:09.924Z,111841.88
2022-10-17T23:52:38.816Z,111841.88
2022-10-17T23:55:10.705Z,111583.06
2022-10-17T23:57:39.780Z,111324.28
